createdAt,value
2017-12-26T00:01:17.621Z,13.13
2017-12-26T00:03:46.581Z,13.40
2017-12-26T00:06:18.580Z,14.73
2017-12-26T00:08:49.311Z,13.03
2017-12-26T00:11:18.201Z,14.77
2017-12-26T00:13:48.026Z,11.13
2017-12-26T00:16:17.011Z,11.40
2017-12-26T00:18:45.943Z,11.60
2017-12-26T00:21:16.021Z,10.73
2017-12-26T00:23:45.020Z,9.43
2017-12-26T00:26:15.645Z,9.00
2017-12-26T00:28:44.745Z,10.70
2017-12-26T00:31:14.557Z,9.87
2017-12-26T00:33:43.448Z,9.70
2017-12-26T00:36:12.338Z,10.80
2017-12-26T00:38:43.054Z,11.83
2017-12-26T00:41:11.964Z,13.43
2017-12-26T00:43:42.552Z,10.90
2017-12-26T00:46:11.589Z,11.33
2017-12-26T00:48:42.434Z,10.53
2017-12-26T00:51:11.419Z,12.73
2017-12-26T00:53:41.334Z,14.10
2017-12-26T00:56:10.262Z,10.80
2017-12-26T00:58:40.353Z,6.83
2017-12-26T01:01:09.311Z,10.60
2017-12-26T01:03:38.331Z,9.80
2017-12-26T01:06:07.431Z,8.00
2017-12-26T01:08:36.730Z,6.97
2017-12-26T01:11:05.831Z,5.90
2017-12-26T01:13:35.641Z,6.60
2017-12-26T01:16:05.556Z,8.13
2017-12-26T01:18:34.657Z,10.50
2017-12-26T01:21:03.647Z,11.27
2017-12-26T01:23:34.159Z,11.20
2017-12-26T01:26:03.269Z,11.73
2017-12-26T01:28:33.085Z,11.77
2017-12-26T01:31:04.530Z,11.53
2017-12-26T01:33:34.285Z,13.17
2017-12-26T01:36:04.094Z,11.23
2017-12-26T01:38:33.050Z,10.00
2017-12-26T01:41:02.249Z,8.87
2017-12-26T01:43:32.064Z,7.20
2017-12-26T01:46:24.304Z,8.03
2017-12-26T01:48:53.199Z,7.43
2017-12-26T01:51:22.394Z,8.73
2017-12-26T01:53:51.419Z,13.37
2017-12-26T01:56:20.359Z,14.27
2017-12-26T01:58:51.427Z,10.30
2017-12-26T02:01:21.789Z,16.27
2017-12-26T02:03:50.706Z,9.57
2017-12-26T02:06:19.631Z,11.00
2017-12-26T02:08:49.667Z,10.33
2017-12-26T02:11:20.696Z,9.10
2017-12-26T02:13:55.617Z,8.17
2017-12-26T02:16:24.662Z,8.60
2017-12-26T02:18:54.952Z,12.33
2017-12-26T02:21:26.611Z,13.13
2017-12-26T02:23:56.407Z,9.30
2017-12-26T02:26:26.441Z,11.83
2017-12-26T02:28:58.406Z,10.70
2017-12-26T02:31:27.231Z,13.63
2017-12-26T02:33:57.933Z,12.07
2017-12-26T02:36:28.869Z,11.07
2017-12-26T02:38:58.787Z,12.50
2017-12-26T02:41:27.810Z,15.50
2017-12-26T02:43:56.980Z,10.30
2017-12-26T02:46:26.824Z,11.53
2017-12-26T02:48:56.838Z,11.27
2017-12-26T02:51:26.723Z,9.70
2017-12-26T02:53:57.754Z,12.50
2017-12-26T02:56:27.783Z,13.47
2017-12-26T02:58:57.632Z,15.80
2017-12-26T03:01:26.558Z,16.97
2017-12-26T03:03:55.613Z,16.33
2017-12-26T03:06:24.622Z,13.93
2017-12-26T03:08:53.733Z,11.90
2017-12-26T03:11:24.509Z,10.70
2017-12-26T03:13:53.533Z,11.30
2017-12-26T03:16:23.417Z,15.73
2017-12-26T03:18:55.278Z,19.97
2017-12-26T03:21:24.272Z,16.00
2017-12-26T03:23:56.002Z,14.97
2017-12-26T03:26:25.137Z,15.27
2017-12-26T03:28:54.222Z,14.37
2017-12-26T03:34:01.430Z,16.10
2017-12-26T03:36:30.515Z,13.80
2017-12-26T03:38:59.619Z,15.90
2017-12-26T03:41:28.545Z,13.73
2017-12-26T03:43:57.538Z,15.97
2017-12-26T03:46:26.499Z,15.37
2017-12-26T03:48:55.728Z,14.97
2017-12-26T03:51:25.508Z,13.07
2017-12-26T03:53:55.433Z,15.17
2017-12-26T03:56:24.418Z,13.97
2017-12-26T03:58:53.728Z,18.20
2017-12-26T04:01:22.758Z,15.63
2017-12-26T04:03:51.742Z,15.33
2017-12-26T04:06:20.738Z,14.00
2017-12-26T04:08:50.717Z,15.63
2017-12-26T04:11:19.756Z,14.33
2017-12-26T04:13:49.728Z,17.50
2017-12-26T04:18:55.321Z,17.07
2017-12-26T04:21:25.354Z,14.83
2017-12-26T04:23:55.305Z,17.63
2017-12-26T04:26:24.527Z,18.10
2017-12-26T04:28:55.176Z,17.43
2017-12-26T04:31:25.626Z,16.80
2017-12-26T04:33:56.466Z,16.33
2017-12-26T04:36:25.461Z,17.03
2017-12-26T04:41:29.990Z,17.37
2017-12-26T04:43:58.895Z,21.63
2017-12-26T04:46:27.920Z,23.33
2017-12-26T04:48:56.950Z,23.63
2017-12-26T04:51:26.035Z,21.03
2017-12-26T04:53:55.949Z,16.50
2017-12-26T04:56:25.766Z,19.30
2017-12-26T04:58:55.369Z,20.30
2017-12-26T05:03:58.684Z,22.87
2017-12-26T05:06:27.714Z,20.80
2017-12-26T05:08:56.670Z,20.57
2017-12-26T05:11:27.438Z,19.30
2017-12-26T05:13:57.301Z,21.37
2017-12-26T05:16:26.305Z,20.87
2017-12-26T05:18:57.221Z,21.37
2017-12-26T05:21:27.176Z,25.10
2017-12-26T05:23:56.099Z,26.57
2017-12-26T05:26:25.300Z,23.77
2017-12-26T05:28:54.210Z,27.23
2017-12-26T05:31:23.226Z,26.03
2017-12-26T05:33:52.995Z,82.20
2017-12-26T05:36:23.900Z,107.40
2017-12-26T05:38:53.026Z,115.23
2017-12-26T05:41:22.846Z,92.40
2017-12-26T05:43:53.857Z,77.97
2017-12-26T05:46:23.644Z,63.30
2017-12-26T05:48:52.661Z,61.50
2017-12-26T05:51:21.655Z,56.13
2017-12-26T05:53:52.034Z,35.70
2017-12-26T05:56:21.693Z,39.40
2017-12-26T05:58:51.486Z,32.23
2017-12-26T06:01:20.447Z,28.30
2017-12-26T06:03:49.490Z,24.00
2017-12-26T06:06:19.405Z,23.13
2017-12-26T06:08:50.857Z,25.37
2017-12-26T06:11:22.105Z,26.37
2017-12-26T06:13:52.249Z,24.50
2017-12-26T06:16:22.532Z,22.67
2017-12-26T06:18:51.537Z,22.10
2017-12-26T06:21:20.639Z,21.17
2017-12-26T06:23:49.606Z,22.23
2017-12-26T06:26:18.522Z,26.73
2017-12-26T06:28:47.621Z,30.17
2017-12-26T06:31:17.432Z,30.73
2017-12-26T06:33:47.347Z,32.80
2017-12-26T06:36:17.466Z,31.43
2017-12-26T06:38:46.460Z,32.37
2017-12-26T06:41:15.455Z,30.23
2017-12-26T06:43:46.396Z,33.17
2017-12-26T06:46:15.326Z,44.40
2017-12-26T06:48:45.197Z,39.77
2017-12-26T06:51:14.276Z,32.17
2017-12-26T06:53:43.291Z,28.17
2017-12-26T06:56:12.385Z,27.73
2017-12-26T06:58:41.379Z,28.50
2017-12-26T07:01:11.164Z,30.40
2017-12-26T07:03:40.183Z,27.07
2017-12-26T07:06:09.268Z,25.70
2017-12-26T07:08:38.209Z,21.50
2017-12-26T07:11:07.260Z,18.00
2017-12-26T07:13:38.767Z,16.83
2017-12-26T07:16:07.784Z,17.80
2017-12-26T07:18:37.630Z,22.57
2017-12-26T07:24:10.214Z,18.73
2017-12-26T07:26:40.709Z,18.40
2017-12-26T07:29:09.856Z,20.53
2017-12-26T07:31:38.987Z,20.57
2017-12-26T07:34:08.115Z,28.23
2017-12-26T07:36:37.082Z,24.73
2017-12-26T07:39:06.137Z,18.20
2017-12-26T07:41:36.767Z,19.37
2017-12-26T07:44:08.316Z,18.27
2017-12-26T07:46:37.421Z,16.97
2017-12-26T07:49:07.225Z,17.53
2017-12-26T07:51:36.431Z,16.40
2017-12-26T07:54:05.625Z,15.80
2017-12-26T07:56:36.464Z,16.43
2017-12-26T07:59:05.462Z,14.33
2017-12-26T08:01:35.683Z,15.10
2017-12-26T08:04:04.842Z,15.87
2017-12-26T08:06:35.344Z,16.30
2017-12-26T08:09:04.509Z,15.50
2017-12-26T08:11:34.485Z,16.50
2017-12-26T08:14:03.430Z,18.43
2017-12-26T08:16:34.192Z,17.30
2017-12-26T08:19:03.809Z,17.13
2017-12-26T08:21:33.673Z,17.17
2017-12-26T08:24:06.984Z,16.23
2017-12-26T08:26:36.742Z,15.20
2017-12-26T08:29:05.774Z,16.77
2017-12-26T08:31:37.528Z,16.83
2017-12-26T08:34:06.896Z,16.50
2017-12-26T08:36:35.930Z,15.67
2017-12-26T08:39:05.858Z,16.70
2017-12-26T08:41:35.597Z,12.63
2017-12-26T08:44:04.600Z,14.60
2017-12-26T08:46:34.997Z,14.67
2017-12-26T08:49:05.038Z,13.30
2017-12-26T08:51:34.092Z,15.67
2017-12-26T08:54:05.587Z,15.20
2017-12-26T08:56:35.590Z,13.30
2017-12-26T08:59:04.666Z,14.20
2017-12-26T09:01:33.827Z,12.33
2017-12-26T09:04:03.819Z,10.83
2017-12-26T09:06:34.531Z,13.83
2017-12-26T09:09:03.762Z,13.17
2017-12-26T09:11:32.856Z,11.97
2017-12-26T09:14:02.827Z,11.80
2017-12-26T09:16:32.971Z,12.60
2017-12-26T09:19:01.985Z,10.70
2017-12-26T09:21:31.076Z,12.50
2017-12-26T09:24:01.045Z,12.57
2017-12-26T09:26:31.419Z,13.13
2017-12-26T09:29:00.610Z,13.67
2017-12-26T09:31:29.569Z,11.60
2017-12-26T09:34:00.661Z,13.50
2017-12-26T09:36:29.859Z,14.23
2017-12-26T09:38:58.973Z,14.30
2017-12-26T09:41:29.129Z,12.30
2017-12-26T09:43:59.482Z,13.53
2017-12-26T09:46:29.677Z,12.93
2017-12-26T09:48:58.826Z,18.97
2017-12-26T09:51:28.684Z,17.03
2017-12-26T09:53:59.135Z,14.20
2017-12-26T09:56:28.163Z,11.87
2017-12-26T09:58:57.254Z,16.97
2017-12-26T10:01:27.985Z,14.50
2017-12-26T10:03:57.476Z,11.50
2017-12-26T10:06:27.419Z,11.20
2017-12-26T10:08:59.831Z,10.87
2017-12-26T10:11:29.756Z,10.67
2017-12-26T10:13:59.706Z,11.33
2017-12-26T10:16:30.707Z,11.80
2017-12-26T10:18:59.953Z,11.33
2017-12-26T10:21:30.427Z,9.73
2017-12-26T10:24:03.231Z,9.37
2017-12-26T10:26:33.330Z,9.83
2017-12-26T10:29:03.150Z,10.30
2017-12-26T10:31:36.245Z,11.73
2017-12-26T10:34:14.452Z,10.40
2017-12-26T10:36:43.856Z,9.67
2017-12-26T10:39:12.852Z,8.73
2017-12-26T10:41:41.802Z,9.00
2017-12-26T10:44:12.112Z,8.30
2017-12-26T10:46:41.099Z,8.70
2017-12-26T10:49:11.074Z,8.70
2017-12-26T10:51:45.056Z,10.13
2017-12-26T10:54:13.976Z,7.37
2017-12-26T10:56:42.928Z,8.57
2017-12-26T10:59:12.783Z,8.70
2017-12-26T11:01:44.280Z,7.93
2017-12-26T11:04:18.140Z,8.03
2017-12-26T11:06:47.244Z,8.27
2017-12-26T11:09:17.596Z,8.73
2017-12-26T11:11:48.347Z,8.50
2017-12-26T11:14:17.443Z,8.43
2017-12-26T11:16:51.099Z,8.97
2017-12-26T11:19:21.018Z,7.40
2017-12-26T11:21:51.039Z,8.20
2017-12-26T11:24:23.461Z,7.17
2017-12-26T11:26:52.705Z,8.90
2017-12-26T11:29:21.596Z,6.60
2017-12-26T11:34:24.809Z,7.30
2017-12-26T11:36:53.949Z,7.43
2017-12-26T11:39:22.952Z,7.07
2017-12-26T11:41:53.710Z,6.93
2017-12-26T11:44:23.589Z,7.07
2017-12-26T11:46:52.644Z,6.93
2017-12-26T11:49:23.484Z,7.60
2017-12-26T11:51:56.304Z,7.23
2017-12-26T11:54:26.322Z,5.83
2017-12-26T11:56:55.994Z,6.80
2017-12-26T11:59:26.886Z,7.40
2017-12-26T12:01:56.714Z,7.10
2017-12-26T12:04:32.293Z,6.30
2017-12-26T12:07:03.690Z,6.60
2017-12-26T12:09:35.396Z,6.67
2017-12-26T12:12:04.596Z,6.13
2017-12-26T12:14:34.367Z,8.20
2017-12-26T12:17:03.996Z,7.23
2017-12-26T12:19:32.925Z,5.90
2017-12-26T12:22:02.937Z,6.53
2017-12-26T12:24:34.001Z,6.40
2017-12-26T12:27:03.181Z,5.60
2017-12-26T12:29:32.273Z,6.40
2017-12-26T12:32:02.142Z,7.40
2017-12-26T12:34:31.236Z,6.90
2017-12-26T12:37:00.490Z,7.10
2017-12-26T12:39:30.035Z,7.33
2017-12-26T12:41:59.015Z,6.40
2017-12-26T12:44:27.980Z,6.80
2017-12-26T12:46:57.777Z,6.20
2017-12-26T12:49:27.649Z,7.97
2017-12-26T12:51:57.169Z,7.20
2017-12-26T12:54:27.129Z,7.20
2017-12-26T12:56:57.317Z,6.97
2017-12-26T12:59:27.252Z,7.30
2017-12-26T13:01:56.778Z,6.47
2017-12-26T13:04:26.020Z,7.80
2017-12-26T13:06:56.268Z,6.80
2017-12-26T13:09:27.362Z,8.10
2017-12-26T13:11:56.893Z,6.97
2017-12-26T13:14:29.721Z,7.20
2017-12-26T13:16:59.848Z,7.00
2017-12-26T13:19:28.945Z,7.50
2017-12-26T13:24:33.550Z,6.57
2017-12-26T13:27:03.707Z,9.90
2017-12-26T13:29:32.802Z,8.33
2017-12-26T13:32:02.652Z,8.93
2017-12-26T13:34:35.808Z,6.63
2017-12-26T13:37:05.005Z,7.17
2017-12-26T13:39:34.211Z,7.03
2017-12-26T13:42:04.145Z,9.17
2017-12-26T13:44:33.836Z,6.40
2017-12-26T13:47:03.229Z,7.40
2017-12-26T13:49:34.298Z,7.30
2017-12-26T13:52:04.190Z,8.50
2017-12-26T13:54:33.184Z,6.70
2017-12-26T13:57:03.069Z,8.20
2017-12-26T13:59:35.063Z,8.50
2017-12-26T14:02:05.063Z,8.47
2017-12-26T14:04:34.075Z,8.20
2017-12-26T14:07:03.989Z,9.07
2017-12-26T14:09:33.859Z,8.87
2017-12-26T14:12:02.846Z,8.40
2017-12-26T14:14:32.916Z,9.50
2017-12-26T14:17:01.914Z,8.40
2017-12-26T14:19:30.954Z,9.00
2017-12-26T14:21:59.941Z,10.67
2017-12-26T14:24:29.143Z,11.20
2017-12-26T14:26:58.032Z,14.80
2017-12-26T14:29:28.004Z,13.13
2017-12-26T14:31:58.022Z,10.03
2017-12-26T14:34:28.184Z,10.37
2017-12-26T14:36:57.306Z,11.13
2017-12-26T14:41:59.936Z,12.70
2017-12-26T14:44:28.929Z,12.20
2017-12-26T14:46:58.130Z,13.60
2017-12-26T14:49:27.070Z,11.30
2017-12-26T14:51:56.161Z,15.43
2017-12-26T14:54:27.669Z,19.10
2017-12-26T14:56:56.970Z,18.20
2017-12-26T14:59:26.221Z,17.50
2017-12-26T15:01:57.000Z,13.87
2017-12-26T15:04:26.152Z,15.97
2017-12-26T15:06:55.102Z,18.07
2017-12-26T15:09:25.158Z,12.30
2017-12-26T15:11:54.418Z,10.90
2017-12-26T15:14:23.306Z,13.73
2017-12-26T15:16:56.297Z,11.20
2017-12-26T15:19:26.712Z,10.93
2017-12-26T15:21:55.664Z,10.93
2017-12-26T15:24:26.348Z,12.83
2017-12-26T15:26:56.263Z,13.17
2017-12-26T15:29:26.196Z,10.53
2017-12-26T15:31:57.064Z,13.67
2017-12-26T15:34:26.110Z,12.50
2017-12-26T15:36:55.059Z,27.00
2017-12-26T15:39:24.162Z,35.77
2017-12-26T15:41:54.217Z,15.70
2017-12-26T15:44:23.135Z,10.97
2017-12-26T15:49:26.924Z,11.93
2017-12-26T15:51:55.929Z,10.13
2017-12-26T15:54:24.986Z,10.17
2017-12-26T15:56:55.300Z,9.03
2017-12-26T15:59:24.286Z,9.03
2017-12-26T16:01:54.104Z,9.40
2017-12-26T16:04:23.150Z,9.77
2017-12-26T16:06:53.109Z,10.77
2017-12-26T16:09:24.669Z,14.03
2017-12-26T16:11:53.819Z,10.93
2017-12-26T16:14:23.068Z,10.10
2017-12-26T16:16:53.710Z,10.80
2017-12-26T16:19:23.788Z,10.30
2017-12-26T16:21:52.727Z,15.63
2017-12-26T16:24:21.788Z,12.80
2017-12-26T16:26:50.771Z,14.40
2017-12-26T16:29:20.008Z,14.00
2017-12-26T16:31:49.915Z,13.10
2017-12-26T16:34:19.019Z,17.10
2017-12-26T16:36:53.320Z,26.07
2017-12-26T16:39:22.371Z,24.00
2017-12-26T16:41:51.367Z,27.60
2017-12-26T16:44:22.775Z,18.10
2017-12-26T16:46:51.921Z,13.87
2017-12-26T16:49:20.985Z,13.23
2017-12-26T16:51:56.147Z,13.63
2017-12-26T16:54:26.684Z,13.60
2017-12-26T16:56:56.043Z,13.53
2017-12-26T16:59:25.222Z,12.63
2017-12-26T17:01:55.275Z,12.90
2017-12-26T17:04:25.107Z,13.97
2017-12-26T17:06:54.249Z,14.20
2017-12-26T17:09:23.396Z,12.50
2017-12-26T17:11:53.383Z,15.33
2017-12-26T17:14:23.468Z,12.83
2017-12-26T17:16:52.993Z,12.47
2017-12-26T17:19:21.938Z,12.30
2017-12-26T17:24:31.063Z,14.17
2017-12-26T17:27:00.388Z,13.30
2017-12-26T17:29:29.587Z,14.40
2017-12-26T17:31:59.495Z,12.30
2017-12-26T17:34:28.539Z,11.73
2017-12-26T17:36:57.692Z,12.23
2017-12-26T17:39:28.709Z,13.27
2017-12-26T17:41:57.613Z,13.57
2017-12-26T17:44:28.843Z,12.83
2017-12-26T17:46:57.969Z,28.57
2017-12-26T17:49:27.122Z,20.63
2017-12-26T17:51:56.957Z,15.80
2017-12-26T17:57:01.728Z,14.37
2017-12-26T17:59:33.030Z,14.13
2017-12-26T18:04:40.890Z,16.10
2017-12-26T18:07:10.000Z,16.87
2017-12-26T18:09:38.980Z,17.37
2017-12-26T18:12:10.434Z,17.70
2017-12-26T18:14:39.481Z,25.73
2017-12-26T18:17:08.470Z,18.23
2017-12-26T18:19:39.763Z,18.57
2017-12-26T18:22:08.915Z,16.27
2017-12-26T18:24:38.039Z,15.97
2017-12-26T18:29:42.854Z,13.77
2017-12-26T18:32:12.010Z,15.10
2017-12-26T18:34:42.617Z,15.03
2017-12-26T18:37:12.617Z,15.83
2017-12-26T18:39:41.600Z,14.20
2017-12-26T18:42:10.632Z,15.40
2017-12-26T18:47:16.547Z,15.77
2017-12-26T18:49:45.796Z,17.63
2017-12-26T18:52:15.841Z,34.77
2017-12-26T18:54:44.990Z,19.30
2017-12-26T18:57:13.950Z,19.40
2017-12-26T18:59:48.770Z,19.77
2017-12-26T19:02:18.805Z,18.27
2017-12-26T19:04:47.794Z,18.23
2017-12-26T19:07:16.891Z,19.93
2017-12-26T19:09:46.804Z,19.90
2017-12-26T19:12:15.939Z,19.70
2017-12-26T19:14:45.778Z,20.10
2017-12-26T19:17:14.815Z,22.13
2017-12-26T19:19:43.863Z,26.07
2017-12-26T19:22:13.728Z,20.97
2017-12-26T19:24:42.919Z,21.03
2017-12-26T19:27:14.059Z,21.67
2017-12-26T19:29:44.703Z,23.00
2017-12-26T19:32:13.689Z,20.97
2017-12-26T19:34:43.704Z,21.53
2017-12-26T19:37:12.801Z,20.97
2017-12-26T19:39:41.887Z,22.10
2017-12-26T19:42:11.146Z,22.30
2017-12-26T19:44:41.112Z,25.23
2017-12-26T19:47:10.108Z,23.57
2017-12-26T19:49:40.483Z,23.97
2017-12-26T19:52:10.448Z,24.97
2017-12-26T19:54:39.751Z,26.40
2017-12-26T19:57:09.688Z,25.50
2017-12-26T19:59:38.662Z,31.80
2017-12-26T20:02:08.547Z,33.23
2017-12-26T20:04:38.390Z,30.10
2017-12-26T20:07:08.793Z,26.30
2017-12-26T20:09:39.651Z,26.30
2017-12-26T20:12:08.910Z,25.60
2017-12-26T20:14:38.011Z,23.90
2017-12-26T20:17:08.009Z,23.37
2017-12-26T20:22:14.458Z,24.33
2017-12-26T20:24:44.419Z,24.00
2017-12-26T20:27:13.566Z,21.63
2017-12-26T20:29:42.769Z,23.27
2017-12-26T20:32:13.608Z,23.10
2017-12-26T20:34:45.372Z,23.87
2017-12-26T20:37:15.442Z,24.20
2017-12-26T20:39:45.293Z,23.47
2017-12-26T20:42:14.448Z,26.23
2017-12-26T20:44:43.538Z,30.27
2017-12-26T20:47:15.548Z,25.20
2017-12-26T20:49:44.810Z,22.80
2017-12-26T20:52:15.902Z,30.67
2017-12-26T20:54:46.116Z,49.20
2017-12-26T20:57:15.111Z,27.90
2017-12-26T21:02:24.936Z,28.90
2017-12-26T21:04:54.175Z,31.40
2017-12-26T21:07:23.442Z,26.67
2017-12-26T21:09:52.520Z,26.53
2017-12-26T21:12:22.585Z,29.07
2017-12-26T21:14:51.791Z,31.70
2017-12-26T21:17:20.879Z,28.73
2017-12-26T21:19:49.874Z,28.47
2017-12-26T21:22:18.927Z,26.67
2017-12-26T21:27:25.050Z,26.30
2017-12-26T21:29:55.076Z,28.00
2017-12-26T21:32:24.880Z,27.40
2017-12-26T21:34:53.816Z,26.97
2017-12-26T21:37:22.821Z,23.83
2017-12-26T21:39:52.023Z,24.60
2017-12-26T21:42:21.665Z,22.43
2017-12-26T21:44:50.924Z,23.10
2017-12-26T21:47:20.076Z,22.27
2017-12-26T21:49:51.119Z,24.23
2017-12-26T21:52:20.313Z,23.50
2017-12-26T21:54:49.972Z,17.03
2017-12-26T21:57:21.068Z,17.67
2017-12-26T21:59:50.522Z,17.60
2017-12-26T22:02:19.692Z,16.00
2017-12-26T22:04:51.624Z,16.93
2017-12-26T22:07:20.789Z,15.23
2017-12-26T22:09:50.007Z,17.17
2017-12-26T22:12:22.216Z,16.03
2017-12-26T22:14:52.686Z,18.37
2017-12-26T22:17:21.732Z,17.40
2017-12-26T22:22:26.935Z,18.50
2017-12-26T22:24:55.930Z,20.27
2017-12-26T22:27:25.400Z,19.17
2017-12-26T22:29:54.423Z,18.23
2017-12-26T22:32:23.626Z,18.63
2017-12-26T22:34:58.405Z,16.87
2017-12-26T22:37:29.139Z,17.17
2017-12-26T22:39:58.240Z,15.63
2017-12-26T22:42:28.190Z,15.33
2017-12-26T22:44:58.169Z,13.93
2017-12-26T22:47:27.579Z,13.50
2017-12-26T22:49:57.663Z,13.30
2017-12-26T22:52:27.564Z,12.77
2017-12-26T22:54:56.712Z,15.10
2017-12-26T22:57:26.613Z,14.83
2017-12-26T22:59:55.973Z,14.30
2017-12-26T23:02:25.905Z,13.10
2017-12-26T23:07:32.220Z,12.30
2017-12-26T23:10:02.966Z,12.33
2017-12-26T23:12:36.221Z,12.80
2017-12-26T23:15:11.680Z,12.20
2017-12-26T23:17:48.500Z,11.97
2017-12-26T23:20:23.605Z,12.20
2017-12-26T23:22:59.035Z,13.17
2017-12-26T23:25:33.475Z,13.30
2017-12-26T23:28:10.321Z,13.07
2017-12-26T23:30:44.874Z,12.80
2017-12-26T23:33:22.579Z,12.10
2017-12-26T23:35:57.202Z,13.80
2017-12-26T23:38:34.183Z,13.07
2017-12-26T23:41:08.602Z,12.40
2017-12-26T23:46:47.760Z,12.43
2017-12-26T23:49:23.196Z,13.27
2017-12-26T23:51:58.546Z,12.80
2017-12-26T23:54:34.807Z,12.50
2017-12-26T23:57:10.292Z,11.97
2017-12-26T23:59:44.876Z,12.67
